Time;durP1;ratioP1;P1;durP2;ratioP2;P2;SDS_P1;SDS_P2;PMS_P1;PMS_P2;Temp;Humidity;BMP_temperature;BMP_pressure;BME280_temperature;BME280_humidity;BME280_pressure;Samples;Min_cycle;Max_cycle;Signal;HPM_P1;HPM_P2
2022/01/26 00:06:28;;;;;;;14.52;8.77;;;;;;;;;;5109692;28;20505;-59
2022/01/26 00:08:54;;;;;;;12.32;7.97;;;;;;;;;;5107896;28;20059;-58
2022/01/26 00:11:20;;;;;;;16.98;9.98;;;;;;;;;;5108741;28;20067;-59
2022/01/26 00:13:46;;;;;;;15.10;9.02;;;;;;;;;;5109368;28;20054;-59
2022/01/26 00:19:09;;;;;;;15.75;8.30;;;;;;;;;;5009178;28;20046;-59
2022/01/26 00:21:40;;;;;;;16.20;9.88;;;;;;;;;;4994758;28;20456;-58
2022/01/26 00:29:16;;;;;;;16.63;9.55;;;;;;;;;;5002734;28;20540;-58
2022/01/26 00:40:29;;;;;;;13.70;8.25;;;;;;;;;;4987524;28;20050;-58
2022/01/26 00:42:59;;;;;;;12.75;8.13;;;;;;;;;;4987063;28;20047;-59
2022/01/26 00:45:33;;;;;;;14.65;9.30;;;;;;;;;;4987634;28;20125;-58
2022/01/26 00:48:02;;;;;;;;;;;;;;;;;;4988082;28;20446;-58
2022/01/26 00:50:28;;;;;;;13.48;8.40;;;;;;;;;;4987369;28;19979;-58
2022/01/26 00:52:55;;;;;;;17.02;10.23;;;;;;;;;;4985851;28;20055;-59
2022/01/26 00:55:21;;;;;;;15.50;9.27;;;;;;;;;;5004436;28;20049;-58
2022/01/26 00:57:47;;;;;;;13.55;9.25;;;;;;;;;;5017540;28;20036;-58
2022/01/26 01:00:17;;;;;;;14.70;8.70;;;;;;;;;;5038304;28;20247;-59
2022/01/26 01:02:43;;;;;;;14.20;8.70;;;;;;;;;;5028682;28;20063;-59
2022/01/26 01:05:18;;;;;;;14.02;9.00;;;;;;;;;;5047190;28;20647;-58
2022/01/26 01:07:45;;;;;;;14.30;9.25;;;;;;;;;;5037462;28;20056;-59
2022/01/26 01:10:12;;;;;;;15.75;8.70;;;;;;;;;;5092101;28;20040;-58
2022/01/26 01:12:42;;;;;;;16.52;10.65;;;;;;;;;;5099615;28;20044;-58
2022/01/26 01:15:09;;;;;;;15.27;9.18;;;;;;;;;;5113226;28;20046;-58
2022/01/26 01:17:43;;;;;;;14.73;9.18;;;;;;;;;;5112621;28;20089;-58
2022/01/26 01:20:36;;;;;;;15.57;9.20;;;;;;;;;;5113550;28;20051;-59
2022/01/26 01:23:32;;;;;;;15.82;9.68;;;;;;;;;;5111627;28;20108;-59
2022/01/26 01:26:37;;;;;;;16.98;9.70;;;;;;;;;;5111839;28;20118;-58
2022/01/26 01:29:18;;;;;;;15.13;8.90;;;;;;;;;;5112717;28;20348;-59
2022/01/26 01:34:11;;;;;;;15.93;9.90;;;;;;;;;;5111553;28;20090;-59
2022/01/26 01:36:39;;;;;;;15.13;9.07;;;;;;;;;;5112844;28;20048;-58
2022/01/26 01:39:09;;;;;;;15.30;9.27;;;;;;;;;;5113149;28;20075;-59
2022/01/26 01:41:38;;;;;;;21.35;11.82;;;;;;;;;;5094942;28;20035;-58
2022/01/26 01:44:04;;;;;;;16.20;10.38;;;;;;;;;;5111535;28;20066;-59
2022/01/26 01:46:31;;;;;;;15.85;9.95;;;;;;;;;;5112429;28;20035;-59
2022/01/26 01:48:57;;;;;;;14.98;9.55;;;;;;;;;;5111395;28;20046;-59
2022/01/26 01:51:31;;;;;;;15.90;9.85;;;;;;;;;;5112224;28;20036;-59
2022/01/26 01:53:57;;;;;;;16.17;9.73;;;;;;;;;;5111605;28;20043;-59
2022/01/26 01:56:25;;;;;;;18.30;10.57;;;;;;;;;;5111411;28;20088;-58
2022/01/26 01:58:52;;;;;;;16.13;10.57;;;;;;;;;;5111937;28;20050;-58
2022/01/26 02:01:18;;;;;;;15.50;9.40;;;;;;;;;;5111883;28;20135;-59
2022/01/26 02:03:44;;;;;;;15.40;10.10;;;;;;;;;;5112229;28;20143;-58
2022/01/26 02:06:10;;;;;;;19.63;11.75;;;;;;;;;;5111855;28;20138;-58
2022/01/26 02:08:36;;;;;;;19.88;11.82;;;;;;;;;;5112450;28;20070;-58
2022/01/26 02:11:05;;;;;;;18.48;11.38;;;;;;;;;;5110025;28;20479;-59
2022/01/26 02:13:39;;;;;;;17.33;10.90;;;;;;;;;;5110547;28;20035;-58
2022/01/26 02:16:14;;;;;;;18.98;11.93;;;;;;;;;;5111753;28;20106;-58
2022/01/26 02:19:13;;;;;;;19.33;11.77;;;;;;;;;;5110531;28;20052;-59
2022/01/26 03:09:29;;;;;;;17.15;11.23;;;;;;;;;;5028536;28;20041;-58
2022/01/26 03:11:56;;;;;;;16.25;10.40;;;;;;;;;;5031758;28;20052;-59
2022/01/26 03:16:55;;;;;;;22.25;11.63;;;;;;;;;;5031801;28;20431;-59
2022/01/26 03:30:06;;;;;;;18.85;11.65;;;;;;;;;;4988297;28;20049;-58
2022/01/26 03:35:04;;;;;;;17.90;11.32;;;;;;;;;;4992126;28;20514;-59
2022/01/26 03:37:37;;;;;;;17.42;10.95;;;;;;;;;;4992354;28;20563;-59
2022/01/26 03:40:12;;;;;;;16.15;9.98;;;;;;;;;;4988683;28;20046;-59
2022/01/26 03:42:38;;;;;;;18.13;11.02;;;;;;;;;;4983398;28;20043;-59
2022/01/26 03:45:04;;;;;;;17.95;10.60;;;;;;;;;;5029839;28;20048;-59
2022/01/26 03:47:30;;;;;;;15.95;10.00;;;;;;;;;;5047006;28;20068;-59
2022/01/26 03:49:56;;;;;;;16.45;10.43;;;;;;;;;;5047219;28;20044;-59
2022/01/26 03:52:22;;;;;;;16.42;10.25;;;;;;;;;;5046325;28;20040;-59
2022/01/26 03:54:48;;;;;;;16.00;9.80;;;;;;;;;;5013810;28;20483;-59
2022/01/26 03:57:14;;;;;;;21.25;12.55;;;;;;;;;;5029804;28;20449;-59
2022/01/26 03:59:40;;;;;;;16.10;10.43;;;;;;;;;;5047382;28;20053;-59
2022/01/26 04:02:06;;;;;;;16.27;10.35;;;;;;;;;;5083271;28;20467;-59
2022/01/26 04:04:40;;;;;;;16.42;10.20;;;;;;;;;;5110186;28;20350;-59
2022/01/26 04:07:06;;;;;;;14.57;9.45;;;;;;;;;;5108599;28;20050;-59
2022/01/26 04:09:32;;;;;;;16.30;9.95;;;;;;;;;;5110332;28;20039;-59
2022/01/26 04:11:59;;;;;;;15.65;9.82;;;;;;;;;;5108310;28;20040;-59
2022/01/26 04:14:29;;;;;;;16.98;10.30;;;;;;;;;;5108944;28;20066;-59
2022/01/26 04:16:55;;;;;;;16.98;10.20;;;;;;;;;;5107976;28;20048;-59
2022/01/26 04:19:22;;;;;;;18.10;10.95;;;;;;;;;;5109988;28;20089;-59
2022/01/26 04:24:26;;;;;;;17.73;9.90;;;;;;;;;;5109810;28;20397;-59
2022/01/26 04:29:26;;;;;;;17.27;10.45;;;;;;;;;;5109937;28;20487;-58
2022/01/26 04:31:52;;;;;;;15.32;9.60;;;;;;;;;;5110052;28;20156;-58
2022/01/26 04:34:18;;;;;;;14.13;9.02;;;;;;;;;;5109977;28;20628;-58
2022/01/26 04:37:00;;;;;;;18.30;10.95;;;;;;;;;;5109920;28;20120;-58
2022/01/26 04:39:35;;;;;;;17.95;11.15;;;;;;;;;;5091528;28;20040;-59
2022/01/26 04:42:07;;;;;;;16.15;10.75;;;;;;;;;;5111914;28;20395;-59
2022/01/26 04:44:39;;;;;;;16.20;9.43;;;;;;;;;;5112915;28;20047;-59
2022/01/26 04:47:05;;;;;;;17.40;10.87;;;;;;;;;;5113746;28;20479;-59
2022/01/26 04:49:34;;;;;;;16.40;10.60;;;;;;;;;;5113705;28;20512;-59
2022/01/26 04:52:00;;;;;;;17.30;10.48;;;;;;;;;;5113733;28;20044;-58
2022/01/26 04:54:26;;;;;;;19.65;11.07;;;;;;;;;;5112227;28;20039;-59
2022/01/26 04:56:52;;;;;;;15.70;10.00;;;;;;;;;;5113185;28;20050;-59
2022/01/26 04:59:18;;;;;;;17.30;9.95;;;;;;;;;;5113456;28;20411;-59
2022/01/26 05:01:44;;;;;;;17.45;10.63;;;;;;;;;;5113095;28;20396;-58
2022/01/26 05:04:10;;;;;;;17.00;10.32;;;;;;;;;;5112419;28;20479;-59
2022/01/26 05:06:36;;;;;;;14.98;8.88;;;;;;;;;;5112449;28;20112;-58
2022/01/26 05:09:02;;;;;;;16.33;10.07;;;;;;;;;;5113027;28;20047;-59
2022/01/26 05:11:36;;;;;;;17.90;10.55;;;;;;;;;;5112817;28;20035;-59
2022/01/26 05:14:02;;;;;;;16.98;10.65;;;;;;;;;;5111714;28;20115;-58
2022/01/26 05:16:29;;;;;;;15.07;9.73;;;;;;;;;;5113274;28;20075;-59
2022/01/26 05:18:55;;;;;;;18.42;10.43;;;;;;;;;;5113344;28;20039;-58
2022/01/26 05:21:22;;;;;;;16.35;10.10;;;;;;;;;;5112877;28;20089;-58
2022/01/26 05:23:48;;;;;;;15.43;10.02;;;;;;;;;;5112793;28;20119;-59
2022/01/26 05:26:14;;;;;;;20.33;11.27;;;;;;;;;;5111450;28;20074;-59
2022/01/26 05:28:40;;;;;;;16.98;10.85;;;;;;;;;;5111426;28;20356;-59
2022/01/26 05:31:06;;;;;;;18.10;11.40;;;;;;;;;;5112864;28;20043;-59
2022/01/26 05:33:32;;;;;;;17.35;10.63;;;;;;;;;;5112394;28;20035;-58
2022/01/26 05:35:58;;;;;;;17.58;11.07;;;;;;;;;;5110857;28;20459;-59
2022/01/26 05:38:24;;;;;;;16.15;10.05;;;;;;;;;;5112524;28;20616;-59
2022/01/26 05:40:50;;;;;;;20.02;11.77;;;;;;;;;;5111475;28;20554;-58
2022/01/26 05:43:17;;;;;;;16.25;10.55;;;;;;;;;;5111585;28;20050;-59
2022/01/26 05:45:48;;;;;;;16.40;10.23;;;;;;;;;;5112172;28;20027;-59
2022/01/26 05:48:14;;;;;;;15.95;9.80;;;;;;;;;;5111573;28;20467;-59
2022/01/26 05:50:49;;;;;;;14.55;9.02;;;;;;;;;;5110934;28;20039;-59
2022/01/26 05:53:17;;;;;;;17.98;10.43;;;;;;;;;;5111133;28;20472;-59
2022/01/26 05:55:43;;;;;;;16.23;9.40;;;;;;;;;;5109822;28;20066;-60
2022/01/26 05:58:09;;;;;;;16.02;9.93;;;;;;;;;;5094495;28;20469;-59
2022/01/26 06:00:35;;;;;;;14.43;9.38;;;;;;;;;;5111788;28;20056;-58
2022/01/26 06:03:01;;;;;;;15.15;9.32;;;;;;;;;;5112274;28;20039;-58
2022/01/26 06:05:27;;;;;;;15.73;9.60;;;;;;;;;;5110538;28;20062;-58
2022/01/26 06:07:53;;;;;;;15.55;10.07;;;;;;;;;;5112104;28;20071;-58
2022/01/26 06:10:19;;;;;;;16.17;9.82;;;;;;;;;;5112566;28;20078;-59
2022/01/26 06:12:45;;;;;;;17.63;10.02;;;;;;;;;;5091524;28;20044;-59
2022/01/26 06:15:11;;;;;;;16.23;9.45;;;;;;;;;;5099235;28;20089;-59
2022/01/26 06:17:37;;;;;;;13.65;8.73;;;;;;;;;;5111594;28;20032;-59
2022/01/26 06:20:04;;;;;;;15.93;9.75;;;;;;;;;;5111901;28;20040;-59
2022/01/26 06:22:30;;;;;;;17.48;10.13;;;;;;;;;;5111567;28;20070;-58
2022/01/26 06:24:57;;;;;;;15.90;10.15;;;;;;;;;;5112246;28;20039;-59
2022/01/26 06:27:23;;;;;;;16.25;9.93;;;;;;;;;;5111287;28;20367;-58
2022/01/26 06:29:49;;;;;;;14.05;8.90;;;;;;;;;;5089570;28;20552;-59
2022/01/26 06:32:17;;;;;;;14.20;8.95;;;;;;;;;;5090323;28;20472;-59
2022/01/26 06:34:43;;;;;;;15.55;9.85;;;;;;;;;;5108248;28;20039;-59
2022/01/26 06:37:09;;;;;;;15.10;9.57;;;;;;;;;;5110838;28;20134;-58
2022/01/26 06:39:35;;;;;;;16.42;10.02;;;;;;;;;;5111383;28;20127;-59
2022/01/26 06:42:03;;;;;;;16.25;9.18;;;;;;;;;;5111082;28;20122;-58
2022/01/26 06:44:34;;;;;;;14.68;8.65;;;;;;;;;;5111548;28;20035;-59
2022/01/26 06:49:36;;;;;;;15.73;9.77;;;;;;;;;;5111314;28;20064;-59
2022/01/26 06:52:02;;;;;;;16.38;9.68;;;;;;;;;;5111607;28;20123;-58
2022/01/26 06:54:28;;;;;;;16.20;9.48;;;;;;;;;;5111253;28;20460;-58
2022/01/26 06:56:54;;;;;;;16.73;10.32;;;;;;;;;;5109222;28;20055;-59
2022/01/26 06:59:24;;;;;;;17.60;10.00;;;;;;;;;;5110874;28;20514;-59
2022/01/26 07:01:50;;;;;;;17.58;10.30;;;;;;;;;;5109513;28;20047;-59
2022/01/26 07:04:16;;;;;;;16.50;9.27;;;;;;;;;;5110517;28;20499;-59
2022/01/26 07:06:42;;;;;;;15.93;9.98;;;;;;;;;;5111300;28;20437;-58
2022/01/26 07:09:08;;;;;;;16.58;9.57;;;;;;;;;;5109493;28;20437;-59
2022/01/26 07:11:34;;;;;;;16.88;10.30;;;;;;;;;;5110049;28;20122;-58
2022/01/26 07:14:02;;;;;;;16.95;9.95;;;;;;;;;;5110520;28;20036;-59
2022/01/26 07:21:58;;;;;;;15.07;9.35;;;;;;;;;;5109273;28;20047;-59
2022/01/26 07:24:24;;;;;;;16.25;9.77;;;;;;;;;;5110729;28;20427;-60
2022/01/26 07:26:53;;;;;;;17.40;10.63;;;;;;;;;;5109746;28;20039;-60
2022/01/26 07:29:22;;;;;;;16.55;9.82;;;;;;;;;;5091877;28;20269;-60
2022/01/26 07:31:48;;;;;;;16.85;10.07;;;;;;;;;;5110280;28;20049;-59
2022/01/26 07:34:15;;;;;;;17.65;11.20;;;;;;;;;;5110289;28;20115;-60
2022/01/26 07:36:43;;;;;;;16.42;11.05;;;;;;;;;;5109504;28;20051;-59
2022/01/26 07:39:14;;;;;;;16.75;10.45;;;;;;;;;;5110107;28;20054;-60
2022/01/26 07:41:40;;;;;;;18.80;11.05;;;;;;;;;;5108510;28;20111;-60
2022/01/26 07:44:06;;;;;;;16.58;10.55;;;;;;;;;;5110062;28;20417;-60
2022/01/26 07:46:32;;;;;;;17.08;10.48;;;;;;;;;;5110398;28;20067;-59
2022/01/26 07:48:58;;;;;;;19.05;10.52;;;;;;;;;;5110255;28;20047;-60
2022/01/26 07:51:24;;;;;;;16.88;9.93;;;;;;;;;;5110290;28;20039;-59
2022/01/26 07:53:50;;;;;;;18.80;10.75;;;;;;;;;;5110080;28;20068;-59
2022/01/26 07:56:16;;;;;;;16.30;10.02;;;;;;;;;;5109561;28;20047;-60
2022/01/26 07:58:43;;;;;;;18.20;11.30;;;;;;;;;;5108251;28;20047;-60
2022/01/26 08:01:09;;;;;;;17.65;11.27;;;;;;;;;;5108061;28;20076;-60
2022/01/26 08:03:35;;;;;;;18.05;11.65;;;;;;;;;;5108981;28;20044;-60
2022/01/26 08:06:01;;;;;;;17.50;11.40;;;;;;;;;;5110103;28;20039;-59
2022/01/26 08:08:28;;;;;;;18.73;11.60;;;;;;;;;;5108929;28;20134;-59
2022/01/26 08:10:55;;;;;;;20.08;12.38;;;;;;;;;;5107947;28;20054;-59
2022/01/26 08:13:21;;;;;;;19.42;12.07;;;;;;;;;;5108330;28;20068;-60
2022/01/26 08:15:47;;;;;;;17.33;11.20;;;;;;;;;;5112647;28;20136;-60
2022/01/26 08:18:13;;;;;;;17.65;11.02;;;;;;;;;;5114430;28;20044;-60
2022/01/26 08:20:42;;;;;;;18.17;11.68;;;;;;;;;;5114314;28;20104;-60
2022/01/26 08:23:08;;;;;;;16.95;10.68;;;;;;;;;;5111113;28;20063;-60
2022/01/26 08:25:35;;;;;;;21.67;13.48;;;;;;;;;;5112719;28;20430;-60
2022/01/26 08:28:08;;;;;;;18.92;11.63;;;;;;;;;;5113721;28;20035;-60
2022/01/26 08:30:38;;;;;;;18.38;11.88;;;;;;;;;;5113934;28;20475;-60
2022/01/26 08:33:07;;;;;;;18.83;12.02;;;;;;;;;;5113918;28;20073;-60
2022/01/26 08:35:34;;;;;;;18.05;11.43;;;;;;;;;;5113784;28;20108;-60
2022/01/26 08:38:00;;;;;;;20.55;12.05;;;;;;;;;;5113875;28;20039;-60
2022/01/26 08:40:26;;;;;;;19.77;12.70;;;;;;;;;;5113845;28;20054;-60
2022/01/26 08:42:52;;;;;;;18.75;11.43;;;;;;;;;;5113472;28;20044;-59
2022/01/26 08:45:18;;;;;;;21.23;13.55;;;;;;;;;;5114264;28;20094;-60
2022/01/26 08:47:47;;;;;;;18.05;11.85;;;;;;;;;;5112163;28;20112;-60
2022/01/26 08:50:13;;;;;;;20.23;12.13;;;;;;;;;;5112969;28;20447;-60
2022/01/26 08:52:39;;;;;;;20.50;11.55;;;;;;;;;;5113477;28;20445;-59
2022/01/26 08:55:06;;;;;;;17.98;11.32;;;;;;;;;;5095405;28;20454;-60
2022/01/26 08:57:32;;;;;;;16.88;11.27;;;;;;;;;;5113012;28;20042;-60
2022/01/26 08:59:59;;;;;;;19.65;12.32;;;;;;;;;;5113426;28;20044;-60
2022/01/26 09:02:25;;;;;;;19.35;11.30;;;;;;;;;;5113067;28;20036;-59
2022/01/26 09:04:51;;;;;;;19.20;12.30;;;;;;;;;;5113835;28;20036;-60
2022/01/26 09:07:20;;;;;;;17.38;10.90;;;;;;;;;;5113462;28;20056;-60
2022/01/26 09:09:46;;;;;;;18.08;11.48;;;;;;;;;;5112705;28;20052;-60
2022/01/26 09:12:14;;;;;;;21.95;13.48;;;;;;;;;;5112196;28;20395;-60
2022/01/26 09:14:40;;;;;;;19.15;12.52;;;;;;;;;;5113390;27;20587;-60
2022/01/26 09:17:07;;;;;;;17.63;11.40;;;;;;;;;;5111850;28;20093;-60
2022/01/26 09:19:33;;;;;;;18.75;12.07;;;;;;;;;;5113550;28;20464;-60
2022/01/26 09:22:04;;;;;;;18.70;12.18;;;;;;;;;;5111858;28;20518;-60
2022/01/26 09:24:30;;;;;;;17.77;11.15;;;;;;;;;;5111772;28;20046;-60
2022/01/26 09:26:57;;;;;;;20.33;13.05;;;;;;;;;;5111735;28;20078;-60
2022/01/26 09:29:23;;;;;;;17.90;11.77;;;;;;;;;;5113020;28;20036;-60
2022/01/26 09:31:49;;;;;;;18.48;12.40;;;;;;;;;;5111037;28;20059;-59
2022/01/26 09:34:16;;;;;;;19.02;12.25;;;;;;;;;;5111008;28;20503;-60
2022/01/26 09:36:42;;;;;;;21.15;13.32;;;;;;;;;;5094143;28;20119;-60
2022/01/26 09:39:08;;;;;;;19.83;11.52;;;;;;;;;;5112980;28;20052;-60
2022/01/26 09:41:34;;;;;;;17.92;11.38;;;;;;;;;;5112187;28;20042;-60
2022/01/26 09:44:03;;;;;;;18.95;11.95;;;;;;;;;;5112802;28;20040;-60
2022/01/26 09:46:29;;;;;;;17.40;11.07;;;;;;;;;;5110430;28;20074;-59
2022/01/26 09:48:55;;;;;;;18.15;11.52;;;;;;;;;;5112344;28;20066;-59
2022/01/26 09:51:21;;;;;;;17.90;11.93;;;;;;;;;;5109531;28;20052;-60
2022/01/26 09:54:04;;;;;;;17.67;11.35;;;;;;;;;;5111635;28;20468;-60
2022/01/26 09:56:30;;;;;;;19.05;12.38;;;;;;;;;;5111707;28;20039;-59
2022/01/26 09:58:56;;;;;;;19.90;12.07;;;;;;;;;;5110161;28;20047;-60
2022/01/26 10:01:22;;;;;;;20.45;11.73;;;;;;;;;;5112531;28;20062;-60
2022/01/26 10:03:50;;;;;;;19.35;11.95;;;;;;;;;;5111177;28;20039;-60
2022/01/26 10:06:22;;;;;;;17.15;11.50;;;;;;;;;;5112052;28;20040;-59
2022/01/26 10:19:00;;;;;;;18.75;12.15;;;;;;;;;;5112234;28;20242;-60
2022/01/26 10:21:26;;;;;;;17.83;11.65;;;;;;;;;;5111969;28;20506;-60
2022/01/26 10:23:53;;;;;;;18.63;12.25;;;;;;;;;;5109947;28;20055;-60
2022/01/26 10:26:19;;;;;;;18.67;12.10;;;;;;;;;;5110259;28;20032;-59
2022/01/26 10:28:46;;;;;;;19.67;13.05;;;;;;;;;;5111310;28;20060;-59
2022/01/26 10:31:19;;;;;;;21.10;12.80;;;;;;;;;;5110670;28;20573;-60
2022/01/26 10:33:53;;;;;;;18.95;12.30;;;;;;;;;;5093361;28;20055;-62
2022/01/26 10:36:19;;;;;;;21.65;13.30;;;;;;;;;;5111561;28;20036;-59
2022/01/26 10:38:55;;;;;;;19.02;12.52;;;;;;;;;;5109730;28;20036;-60
2022/01/26 10:41:22;;;;;;;18.20;12.10;;;;;;;;;;5110064;28;20114;-60
2022/01/26 10:43:49;;;;;;;25.77;12.75;;;;;;;;;;5111982;28;20035;-61
2022/01/26 10:46:25;;;;;;;26.63;14.45;;;;;;;;;;5109779;28;20046;-60
2022/01/26 10:49:08;;;;;;;21.75;11.85;;;;;;;;;;5111110;28;20047;-60
2022/01/26 10:54:20;;;;;;;28.67;15.10;;;;;;;;;;5110504;28;20535;-60
2022/01/26 10:56:46;;;;;;;23.50;13.73;;;;;;;;;;5109842;28;20416;-60
2022/01/26 10:59:12;;;;;;;24.08;13.15;;;;;;;;;;5111112;28;20080;-58
2022/01/26 11:01:38;;;;;;;27.15;13.55;;;;;;;;;;5111297;28;20061;-60
2022/01/26 11:04:04;;;;;;;23.35;12.43;;;;;;;;;;5111015;28;20074;-60
2022/01/26 11:06:31;;;;;;;26.30;14.10;;;;;;;;;;5110746;28;20516;-60
2022/01/26 11:08:58;;;;;;;21.45;11.63;;;;;;;;;;5109733;28;20097;-61
2022/01/26 11:11:25;;;;;;;24.60;12.93;;;;;;;;;;5110379;28;20453;-61
2022/01/26 11:13:51;;;;;;;23.40;13.57;;;;;;;;;;5108581;28;20791;-61
2022/01/26 11:16:20;;;;;;;21.05;12.57;;;;;;;;;;5109649;28;20118;-61
2022/01/26 11:18:51;;;;;;;24.27;13.90;;;;;;;;;;5109282;28;20437;-61
2022/01/26 11:21:30;;;;;;;22.17;12.57;;;;;;;;;;5108882;28;20495;-61
2022/01/26 11:24:07;;;;;;;20.98;12.57;;;;;;;;;;5091340;28;20108;-60
2022/01/26 11:26:33;;;;;;;22.48;12.15;;;;;;;;;;5109965;28;20396;-61
2022/01/26 11:29:00;;;;;;;26.92;14.70;;;;;;;;;;5109329;28;20043;-61
2022/01/26 11:31:27;;;;;;;26.80;15.95;;;;;;;;;;5110290;28;20145;-61
2022/01/26 11:33:53;;;;;;;20.75;12.27;;;;;;;;;;5110636;28;20436;-60
2022/01/26 11:36:20;;;;;;;21.65;13.38;;;;;;;;;;5108868;28;20130;-61
2022/01/26 11:46:55;;;;;;;23.50;13.38;;;;;;;;;;5108964;28;20042;-61
2022/01/26 11:49:32;;;;;;;23.15;11.98;;;;;;;;;;5109507;28;20061;-61
2022/01/26 11:51:58;;;;;;;23.70;12.70;;;;;;;;;;5108122;28;20063;-61
2022/01/26 11:54:25;;;;;;;22.25;12.35;;;;;;;;;;5108338;28;20055;-61
2022/01/26 11:56:58;;;;;;;25.23;12.95;;;;;;;;;;5108270;28;20123;-60
2022/01/26 11:59:26;;;;;;;23.95;13.85;;;;;;;;;;5109773;28;20047;-61
2022/01/26 12:02:20;;;;;;;24.50;14.60;;;;;;;;;;5109741;28;20133;-61
2022/01/26 12:04:44;;;;;;;21.90;13.63;;;;;;;;;;5108538;28;20079;-61
2022/01/26 12:07:21;;;;;;;27.35;14.90;;;;;;;;;;5109712;28;20410;-61
2022/01/26 12:09:47;;;;;;;24.13;13.20;;;;;;;;;;5109965;28;20110;-60
2022/01/26 12:12:17;;;;;;;23.63;13.25;;;;;;;;;;5109391;28;20039;-61
2022/01/26 12:14:46;;;;;;;23.45;13.13;;;;;;;;;;5108858;28;20046;-60
2022/01/26 12:17:24;;;;;;;21.48;12.35;;;;;;;;;;5091078;28;20051;-60
2022/01/26 12:20:09;;;;;;;22.73;13.88;;;;;;;;;;5110084;28;20055;-61
2022/01/26 12:34:23;;;;;;;23.23;14.30;;;;;;;;;;5024030;28;20079;-61
2022/01/26 12:45:15;;;;;;;21.67;12.82;;;;;;;;;;4972072;28;20406;-61
2022/01/26 12:47:41;;;;;;;20.88;13.20;;;;;;;;;;5007302;28;20125;-61
2022/01/26 12:50:08;;;;;;;22.90;13.40;;;;;;;;;;5007317;28;20137;-61
2022/01/26 12:52:34;;;;;;;25.05;14.15;;;;;;;;;;4955438;28;20510;-61
2022/01/26 12:55:00;;;;;;;23.63;14.55;;;;;;;;;;4987550;28;20573;-61
2022/01/26 12:57:26;;;;;;;23.77;14.43;;;;;;;;;;4987192;28;20053;-61
2022/01/26 13:00:04;;;;;;;23.92;14.38;;;;;;;;;;5022757;28;20055;-61
2022/01/26 13:02:30;;;;;;;24.65;14.60;;;;;;;;;;5028750;28;20049;-61
2022/01/26 13:05:00;;;;;;;21.20;12.77;;;;;;;;;;5043421;28;20032;-60
2022/01/26 13:07:26;;;;;;;24.88;12.85;;;;;;;;;;5044324;28;20072;-61
2022/01/26 13:09:52;;;;;;;23.88;13.27;;;;;;;;;;5049659;28;20048;-61
2022/01/26 13:12:27;;;;;;;21.60;13.27;;;;;;;;;;5048405;28;20040;-61
2022/01/26 13:15:02;;;;;;;20.90;12.40;;;;;;;;;;5108263;28;20083;-61
2022/01/26 13:25:06;;;;;;;22.13;13.05;;;;;;;;;;5094092;28;20402;-61
2022/01/26 13:27:49;;;;;;;26.38;14.68;;;;;;;;;;5110630;28;20049;-62
2022/01/26 13:30:31;;;;;;;22.73;12.65;;;;;;;;;;5113324;28;20122;-61
2022/01/26 13:35:43;;;;;;;26.35;12.73;;;;;;;;;;5110309;28;20503;-61
2022/01/26 13:38:37;;;;;;;25.73;12.20;;;;;;;;;;5112466;28;20433;-61
2022/01/26 13:59:56;;;;;;;24.42;12.02;;;;;;;;;;5032470;28;20118;-61
2022/01/26 14:02:24;;;;;;;28.23;13.50;;;;;;;;;;5032356;28;20406;-61
2022/01/26 14:04:51;;;;;;;25.75;12.30;;;;;;;;;;5049774;28;20044;-59
2022/01/26 14:07:17;;;;;;;25.58;11.57;;;;;;;;;;5049315;28;20044;-59
2022/01/26 14:09:45;;;;;;;24.05;13.32;;;;;;;;;;5027926;28;20075;-60
2022/01/26 14:12:13;;;;;;;21.65;12.20;;;;;;;;;;5016716;28;20045;-61
2022/01/26 14:14:43;;;;;;;24.35;12.25;;;;;;;;;;5023959;28;20560;-61
2022/01/26 14:17:27;;;;;;;21.77;11.98;;;;;;;;;;5024835;28;20045;-61
2022/01/26 14:20:10;;;;;;;18.23;11.10;;;;;;;;;;5034287;28;20632;-60
2022/01/26 14:22:49;;;;;;;22.92;13.23;;;;;;;;;;5029083;28;20084;-61
2022/01/26 14:27:54;;;;;;;22.05;13.05;;;;;;;;;;5008748;28;20042;-60
2022/01/26 15:12:02;;;;;;;18.92;10.98;;;;;;;;;;5111115;28;20058;-61
2022/01/26 16:37:39;;;;;;;20.58;11.40;;;;;;;;;;5082075;28;20051;-60
2022/01/26 17:12:18;;;;;;;18.70;10.27;;;;;;;;;;5069831;28;20090;-60
2022/01/26 17:26:47;;;;;;;16.80;9.55;;;;;;;;;;5122162;27;20542;-60
2022/01/26 17:55:07;;;;;;;16.80;10.13;;;;;;;;;;5092649;28;20510;-60
2022/01/26 18:04:49;;;;;;;17.15;10.07;;;;;;;;;;5108756;28;20154;-61
2022/01/26 18:13:01;;;;;;;16.80;9.88;;;;;;;;;;5108861;28;20505;-61
2022/01/26 18:32:18;;;;;;;16.13;9.68;;;;;;;;;;5109328;28;20073;-61
2022/01/26 18:50:57;;;;;;;16.25;9.43;;;;;;;;;;5110270;28;20046;-61
2022/01/26 18:53:23;;;;;;;15.90;9.35;;;;;;;;;;5109826;28;20119;-61
2022/01/26 18:55:49;;;;;;;15.43;9.07;;;;;;;;;;5108866;28;20048;-61
2022/01/26 18:58:15;;;;;;;14.68;8.35;;;;;;;;;;5110407;28;20043;-62
2022/01/26 19:00:44;;;;;;;17.17;9.88;;;;;;;;;;5107484;28;20044;-61
2022/01/26 19:03:10;;;;;;;14.38;8.95;;;;;;;;;;5110165;28;20047;-61
2022/01/26 19:05:36;;;;;;;14.52;8.95;;;;;;;;;;5110062;28;20075;-62
2022/01/26 19:08:02;;;;;;;15.13;9.13;;;;;;;;;;5110795;28;20036;-61
2022/01/26 19:10:28;;;;;;;14.68;8.88;;;;;;;;;;5109403;28;20039;-61
2022/01/26 19:12:55;;;;;;;16.55;9.05;;;;;;;;;;5110320;28;20044;-61
2022/01/26 19:15:25;;;;;;;13.80;8.75;;;;;;;;;;5109363;28;20043;-61
2022/01/26 19:18:20;;;;;;;13.30;8.48;;;;;;;;;;5099428;28;20044;-61
2022/01/26 19:21:01;;;;;;;15.07;8.73;;;;;;;;;;5107933;28;20071;-61
2022/01/26 19:26:07;;;;;;;15.57;8.57;;;;;;;;;;5108550;28;20040;-61
2022/01/26 19:28:39;;;;;;;13.75;8.10;;;;;;;;;;5109397;28;20134;-61
2022/01/26 19:52:08;;;;;;;13.68;7.85;;;;;;;;;;5107853;28;20422;-61
2022/01/26 19:54:35;;;;;;;14.23;8.75;;;;;;;;;;5109385;28;20046;-61
2022/01/26 19:57:01;;;;;;;12.88;7.45;;;;;;;;;;5090545;28;20044;-61
2022/01/26 19:59:27;;;;;;;15.77;8.50;;;;;;;;;;5109347;28;20062;-61
2022/01/26 20:01:53;;;;;;;15.27;9.10;;;;;;;;;;5109348;28;20047;-61
2022/01/26 20:04:20;;;;;;;13.30;7.50;;;;;;;;;;5109356;28;20119;-61
2022/01/26 20:06:46;;;;;;;12.80;7.40;;;;;;;;;;5109556;28;20118;-61
2022/01/26 20:09:24;;;;;;;13.77;7.68;;;;;;;;;;5109626;28;20469;-61
2022/01/26 20:11:57;;;;;;;16.92;9.10;;;;;;;;;;5109251;28;20145;-61
2022/01/26 20:14:32;;;;;;;13.82;7.75;;;;;;;;;;5107850;28;20049;-61
2022/01/26 20:16:58;;;;;;;13.38;7.47;;;;;;;;;;5108067;28;20055;-61
2022/01/26 20:19:24;;;;;;;13.60;7.95;;;;;;;;;;5109542;28;20116;-61
2022/01/26 20:21:50;;;;;;;13.77;7.50;;;;;;;;;;5109564;28;20103;-61
2022/01/26 20:24:16;;;;;;;14.73;8.43;;;;;;;;;;5107419;28;20384;-61
2022/01/26 20:26:43;;;;;;;14.07;7.40;;;;;;;;;;5106073;28;20097;-61
2022/01/26 20:29:10;;;;;;;12.20;7.00;;;;;;;;;;5107921;28;20187;-61
2022/01/26 20:31:36;;;;;;;14.15;7.55;;;;;;;;;;5107786;28;20054;-61
2022/01/26 20:34:02;;;;;;;13.60;7.65;;;;;;;;;;5107591;28;20083;-61
2022/01/26 20:36:29;;;;;;;13.30;7.60;;;;;;;;;;5109397;28;20118;-61
2022/01/26 20:39:01;;;;;;;14.48;7.63;;;;;;;;;;5109778;28;20434;-61
2022/01/26 20:41:28;;;;;;;15.00;8.38;;;;;;;;;;5123335;27;20047;-61
2022/01/26 20:43:54;;;;;;;13.43;7.25;;;;;;;;;;5107878;28;20051;-61
2022/01/26 20:46:20;;;;;;;13.85;7.90;;;;;;;;;;5107685;28;20055;-61
2022/01/26 20:48:46;;;;;;;14.85;7.70;;;;;;;;;;5109351;28;20134;-61
2022/01/26 20:51:12;;;;;;;15.45;8.68;;;;;;;;;;5109092;28;20035;-61
2022/01/26 20:53:39;;;;;;;15.48;8.18;;;;;;;;;;5090812;28;20119;-61
2022/01/26 20:56:05;;;;;;;17.08;8.00;;;;;;;;;;5106556;28;20310;-61
2022/01/26 20:58:31;;;;;;;12.30;7.25;;;;;;;;;;5108895;28;20423;-61
2022/01/26 21:00:57;;;;;;;14.20;8.35;;;;;;;;;;5089579;28;20126;-61
2022/01/26 21:03:24;;;;;;;14.75;7.00;;;;;;;;;;4752092;28;9999978;-61
2022/01/26 21:05:50;;;;;;;14.20;8.07;;;;;;;;;;5104950;28;20044;-61
2022/01/26 21:08:21;;;;;;;14.45;7.65;;;;;;;;;;5103619;28;20040;-61
2022/01/26 21:10:47;;;;;;;13.38;7.90;;;;;;;;;;5103582;28;20135;-62
2022/01/26 21:13:13;;;;;;;15.85;8.65;;;;;;;;;;5103684;28;20047;-61
2022/01/26 21:15:39;;;;;;;15.15;8.48;;;;;;;;;;5104339;28;20032;-61
2022/01/26 21:18:05;;;;;;;14.85;8.25;;;;;;;;;;5104777;28;20047;-62
2022/01/26 21:20:32;;;;;;;14.23;8.85;;;;;;;;;;5101651;28;20043;-61
2022/01/26 21:22:59;;;;;;;15.43;8.35;;;;;;;;;;5104008;28;20122;-61
2022/01/26 21:25:25;;;;;;;15.40;8.63;;;;;;;;;;5108765;28;20086;-61
2022/01/26 21:27:51;;;;;;;15.40;9.23;;;;;;;;;;5106036;28;20093;-61
2022/01/26 21:30:17;;;;;;;12.80;8.30;;;;;;;;;;5108581;28;20486;-60
2022/01/26 21:32:43;;;;;;;15.50;8.90;;;;;;;;;;5107302;28;20062;-63
2022/01/26 21:35:09;;;;;;;15.20;7.88;;;;;;;;;;5108764;28;20043;-61
2022/01/26 21:37:35;;;;;;;17.02;9.50;;;;;;;;;;5108552;28;20058;-64
2022/01/26 21:40:01;;;;;;;16.08;9.48;;;;;;;;;;5107537;28;20134;-60
2022/01/26 21:42:28;;;;;;;14.40;8.57;;;;;;;;;;5106349;28;20168;-60
2022/01/26 21:44:54;;;;;;;15.82;8.93;;;;;;;;;;5108002;28;20511;-60
2022/01/26 21:47:20;;;;;;;15.93;9.50;;;;;;;;;;5108497;28;20058;-60
2022/01/26 21:49:48;;;;;;;14.35;8.82;;;;;;;;;;5107019;28;20067;-61